Time;durP1;ratioP1;P1;durP2;ratioP2;P2;SDS_P1;SDS_P2;PMS_P1;PMS_P2;Temp;Humidity;BMP_temperature;BMP_pressure;BME280_temperature;BME280_humidity;BME280_pressure;Samples;Min_cycle;Max_cycle;Signal;HPM_P1;HPM_P2
2023/05/08 00:01:04;;;;;;;;;;;13.00;89.60;;;;;;4802096;29;19932;-80
2023/05/08 00:03:31;;;;;;;;;;;12.90;90.30;;;;;;4785211;29;19941;-81
2023/05/08 00:05:59;;;;;;;;;;;13.00;89.80;;;;;;4771387;29;19936;-81
2023/05/08 00:08:26;;;;;;;;;;;12.90;89.70;;;;;;4790380;29;19936;-81
2023/05/08 00:10:53;;;;;;;;;;;13.00;88.90;;;;;;4791250;29;19943;-80
2023/05/08 00:13:20;;;;;;;;;;;13.00;89.90;;;;;;4821142;29;20316;-80
2023/05/08 00:15:47;;;;;;;;;;;12.90;88.50;;;;;;4805082;29;19936;-80
2023/05/08 00:18:14;;;;;;;;;;;12.80;88.60;;;;;;4807626;29;20227;-80
2023/05/08 00:20:41;;;;;;;;;;;12.80;88.70;;;;;;4804961;29;22384;-80
2023/05/08 00:23:08;;;;;;;;;;;12.80;89.60;;;;;;4805713;29;20661;-79
2023/05/08 00:25:35;;;;;;;;;;;12.80;89.40;;;;;;4816456;29;19976;-81
2023/05/08 00:28:02;;;;;;;;;;;12.80;89.60;;;;;;4787068;29;19936;-81
2023/05/08 00:30:29;;;;;;;;;;;12.80;90.00;;;;;;4812531;29;19937;-80
2023/05/08 00:32:56;;;;;;;;;;;12.80;89.40;;;;;;4808745;29;19936;-80
2023/05/08 00:35:23;;;;;;;;;;;12.80;89.70;;;;;;4808643;29;19987;-80
2023/05/08 00:37:50;;;;;;;;;;;12.70;90.50;;;;;;4844498;29;20612;-79
2023/05/08 00:40:17;;;;;;;;;;;12.70;90.30;;;;;;4824194;29;19964;-79
2023/05/08 00:42:44;;;;;;;;;;;12.70;90.40;;;;;;4792647;29;19937;-78
2023/05/08 00:45:11;;;;;;;;;;;12.70;90.00;;;;;;4805032;29;22992;-78
2023/05/08 00:47:38;;;;;;;;;;;12.50;90.30;;;;;;4806611;29;19936;-78
2023/05/08 00:50:06;;;;;;;;;;;12.50;90.70;;;;;;4801561;29;19940;-78
2023/05/08 00:52:33;;;;;;;;;;;12.60;90.50;;;;;;4820481;29;19936;-80
2023/05/08 00:55:01;;;;;;;;;;;12.50;91.00;;;;;;4806759;29;19937;-80
2023/05/08 00:57:31;;;;;;;;;;;12.60;91.10;;;;;;4796560;29;20411;-80
2023/05/08 00:59:59;;;;;;;;;;;12.50;90.80;;;;;;4803060;29;20721;-80
2023/05/08 01:02:27;;;;;;;;;;;12.50;90.40;;;;;;4785725;29;19940;-80
2023/05/08 01:04:55;;;;;;;;;;;12.50;90.70;;;;;;4801767;29;21381;-80
2023/05/08 01:07:22;;;;;;;;;;;12.40;91.00;;;;;;4821124;29;19936;-79
2023/05/08 01:09:49;;;;;;;;;;;12.40;90.80;;;;;;4789087;29;19943;-78
2023/05/08 01:12:23;;;;;;;;;;;12.40;90.50;;;;;;4781436;29;19941;-78
2023/05/08 01:15:05;;;;;;;;;;;12.40;90.80;;;;;;4836603;29;19943;-78
2023/05/08 01:17:45;;;;;;;;;;;12.40;90.60;;;;;;4838072;29;20580;-78
2023/05/08 01:20:23;;;;;;;;;;;12.30;91.00;;;;;;4793921;29;19945;-78
2023/05/08 01:22:56;;;;;;;;;;;12.30;91.00;;;;;;4787648;29;20055;-78
2023/05/08 01:25:30;;;;;;;;;;;12.30;90.90;;;;;;4795562;29;20023;-78
2023/05/08 01:28:15;;;;;;;;;;;12.30;91.10;;;;;;4807742;29;19937;-80
2023/05/08 01:31:01;;;;;;;;;;;12.30;91.30;;;;;;4799871;29;20054;-80
2023/05/08 01:33:32;;;;;;;;;;;12.30;91.30;;;;;;4818725;29;19937;-80
2023/05/08 01:36:01;;;;;;;;;;;12.30;90.90;;;;;;4824664;29;19943;-80
2023/05/08 01:38:34;;;;;;;;;;;12.30;90.70;;;;;;4823908;29;20032;-80
2023/05/08 01:41:08;;;;;;;;;;;12.30;90.80;;;;;;4807159;29;20481;-80
2023/05/08 01:43:41;;;;;;;;;;;12.20;90.00;;;;;;4788249;29;20234;-80
2023/05/08 01:46:19;;;;;;;;;;;12.20;90.30;;;;;;4800362;29;19943;-80
2023/05/08 01:48:49;;;;;;;;;;;12.20;91.00;;;;;;4817277;29;19936;-80
2023/05/08 01:51:18;;;;;;;;;;;12.20;90.30;;;;;;4806445;29;19936;-80
2023/05/08 01:53:51;;;;;;;;;;;12.20;91.00;;;;;;4839534;29;20417;-80
2023/05/08 01:56:21;;;;;;;;;;;12.10;91.60;;;;;;4802053;29;20028;-80
2023/05/08 01:58:52;;;;;;;;;;;12.10;91.10;;;;;;4809348;29;19992;-80
2023/05/08 02:01:22;;;;;;;;;;;12.00;91.60;;;;;;4786927;29;20325;-80
2023/05/08 02:03:49;;;;;;;;;;;12.00;91.70;;;;;;4767258;29;19992;-80
2023/05/08 02:06:18;;;;;;;;;;;12.00;91.60;;;;;;4791407;29;19936;-80
2023/05/08 02:08:46;;;;;;;;;;;12.00;91.40;;;;;;4816706;29;20404;-80
2023/05/08 02:11:13;;;;;;;;;;;12.00;91.40;;;;;;4793703;29;19943;-80
2023/05/08 02:13:41;;;;;;;;;;;12.00;91.00;;;;;;4823388;29;19976;-80
2023/05/08 02:16:09;;;;;;;;;;;12.00;91.00;;;;;;4787288;29;20028;-80
2023/05/08 02:18:37;;;;;;;;;;;11.90;90.70;;;;;;4808439;29;20069;-80
2023/05/08 02:21:05;;;;;;;;;;;11.90;91.30;;;;;;4817622;29;20224;-80
2023/05/08 02:23:33;;;;;;;;;;;11.90;91.10;;;;;;4822847;29;20333;-80
2023/05/08 02:26:02;;;;;;;;;;;11.90;90.90;;;;;;4793085;29;19959;-80
2023/05/08 02:28:29;;;;;;;;;;;11.90;90.90;;;;;;4803723;29;19937;-80
2023/05/08 02:30:57;;;;;;;;;;;11.90;91.10;;;;;;4790808;29;20820;-80
2023/05/08 02:33:26;;;;;;;;;;;11.90;90.90;;;;;;4822804;29;20416;-80
2023/05/08 02:35:54;;;;;;;;;;;11.90;91.00;;;;;;4793356;29;20609;-80
2023/05/08 02:38:22;;;;;;;;;;;11.70;90.90;;;;;;4831247;29;19960;-80
2023/05/08 02:40:54;;;;;;;;;;;11.70;90.80;;;;;;4807195;29;19937;-80
2023/05/08 02:43:22;;;;;;;;;;;11.70;91.10;;;;;;4792294;29;20043;-80
2023/05/08 02:46:02;;;;;;;;;;;11.70;91.40;;;;;;4805353;29;19936;-80
2023/05/08 02:48:33;;;;;;;;;;;11.80;91.50;;;;;;4804715;29;20476;-80
2023/05/08 02:51:17;;;;;;;;;;;11.80;91.20;;;;;;4820521;29;19943;-80
2023/05/08 02:53:51;;;;;;;;;;;11.70;91.20;;;;;;4807785;29;21982;-80
2023/05/08 02:56:31;;;;;;;;;;;11.60;91.70;;;;;;4784751;29;19984;-80
2023/05/08 02:59:09;;;;;;;;;;;11.60;92.60;;;;;;4796133;29;19936;-80
2023/05/08 03:02:00;;;;;;;;;;;11.60;92.30;;;;;;4783136;29;20628;-80
2023/05/08 03:04:33;;;;;;;;;;;11.60;92.10;;;;;;4763604;29;19936;-80
2023/05/08 03:07:01;;;;;;;;;;;11.60;91.90;;;;;;4782255;29;20071;-80
2023/05/08 03:09:34;;;;;;;;;;;11.60;92.40;;;;;;4797309;29;19936;-80
2023/05/08 03:12:05;;;;;;;;;;;11.60;92.50;;;;;;4797209;29;20038;-80
2023/05/08 03:14:36;;;;;;;;;;;11.50;92.50;;;;;;4797809;29;19937;-80
2023/05/08 03:17:05;;;;;;;;;;;11.60;92.60;;;;;;4804980;29;19943;-79
2023/05/08 03:19:34;;;;;;;;;;;11.50;93.10;;;;;;4807675;29;20035;-79
2023/05/08 03:22:05;;;;;;;;;;;11.50;92.90;;;;;;4799217;29;19937;-80
2023/05/08 03:24:33;;;;;;;;;;;11.60;93.00;;;;;;4815427;29;19944;-79
2023/05/08 03:27:02;;;;;;;;;;;11.60;93.20;;;;;;4790384;29;20107;-80
2023/05/08 03:29:29;;;;;;;;;;;11.60;93.20;;;;;;4806110;29;19965;-80
2023/05/08 03:31:57;;;;;;;;;;;11.50;93.80;;;;;;4798184;29;19936;-80
2023/05/08 03:34:24;;;;;;;;;;;11.50;93.80;;;;;;4782794;29;19936;-80
2023/05/08 03:36:51;;;;;;;;;;;11.40;94.20;;;;;;4808396;29;20308;-80
2023/05/08 03:39:18;;;;;;;;;;;11.40;94.00;;;;;;4806692;29;19934;-80
2023/05/08 03:41:46;;;;;;;;;;;11.40;94.20;;;;;;4822009;29;19943;-80
2023/05/08 03:44:14;;;;;;;;;;;11.40;94.10;;;;;;4783884;29;19936;-80
2023/05/08 03:46:41;;;;;;;;;;;11.40;93.70;;;;;;4821645;29;20693;-80
2023/05/08 03:49:08;;;;;;;;;;;11.50;93.80;;;;;;4811588;29;19992;-80
2023/05/08 03:51:38;;;;;;;;;;;11.40;93.40;;;;;;4806429;29;20072;-80
2023/05/08 03:54:05;;;;;;;;;;;11.50;93.50;;;;;;4795130;29;19936;-80
2023/05/08 03:56:33;;;;;;;;;;;11.50;93.60;;;;;;4810695;29;19928;-80
2023/05/08 03:59:01;;;;;;;;;;;11.50;93.60;;;;;;4824292;29;19936;-80
2023/05/08 04:01:39;;;;;;;;;;;11.40;93.50;;;;;;4821602;29;19936;-80
2023/05/08 04:04:16;;;;;;;;;;;11.50;93.30;;;;;;4799433;29;19943;-80
2023/05/08 04:06:58;;;;;;;;;;;11.40;93.00;;;;;;4847287;29;20159;-80
2023/05/08 04:09:42;;;;;;;;;;;11.30;92.70;;;;;;4812861;29;19937;-80
2023/05/08 04:12:21;;;;;;;;;;;11.40;92.80;;;;;;4824469;29;20099;-80
2023/05/08 04:14:52;;;;;;;;;;;11.30;92.70;;;;;;4807722;29;19936;-81
2023/05/08 04:17:33;;;;;;;;;;;11.30;92.90;;;;;;4806156;29;22624;-81
2023/05/08 04:20:03;;;;;;;;;;;11.40;93.30;;;;;;4786101;29;19936;-81
2023/05/08 04:22:32;;;;;;;;;;;11.40;93.90;;;;;;4810591;29;19967;-81
2023/05/08 04:25:01;;;;;;;;;;;11.40;93.10;;;;;;4835023;29;19928;-81
2023/05/08 04:27:28;;;;;;;;;;;11.30;92.80;;;;;;4819411;29;19984;-81
2023/05/08 04:29:56;;;;;;;;;;;11.30;92.90;;;;;;4811194;29;19936;-81
2023/05/08 04:32:24;;;;;;;;;;;11.40;93.10;;;;;;4771991;29;19940;-80
2023/05/08 04:34:54;;;;;;;;;;;11.40;92.80;;;;;;4804280;29;20076;-80
2023/05/08 04:37:29;;;;;;;;;;;11.30;93.20;;;;;;4824784;29;20030;-80
2023/05/08 04:39:58;;;;;;;;;;;11.40;93.50;;;;;;4822458;29;20027;-80
2023/05/08 04:42:25;;;;;;;;;;;11.30;94.00;;;;;;4808549;29;19936;-80
2023/05/08 04:44:54;;;;;;;;;;;11.40;93.80;;;;;;4816818;29;20623;-80
2023/05/08 04:47:22;;;;;;;;;;;11.50;94.10;;;;;;4822667;29;19937;-81
2023/05/08 04:49:50;;;;;;;;;;;11.60;93.80;;;;;;4818144;29;19935;-81
2023/05/08 04:52:17;;;;;;;;;;;11.60;93.40;;;;;;4788520;29;19995;-80
2023/05/08 04:54:44;;;;;;;;;;;11.60;92.80;;;;;;4813368;29;20439;-80
2023/05/08 04:57:11;;;;;;;;;;;11.40;92.70;;;;;;4804684;29;20071;-80
2023/05/08 04:59:38;;;;;;;;;;;11.60;93.40;;;;;;4804267;29;19936;-80
2023/05/08 05:02:07;;;;;;;;;;;11.60;92.50;;;;;;4805306;29;22157;-80
2023/05/08 05:04:35;;;;;;;;;;;11.70;92.40;;;;;;4821514;29;19937;-80
2023/05/08 05:07:04;;;;;;;;;;;11.70;92.20;;;;;;4820680;29;19936;-80
2023/05/08 05:09:35;;;;;;;;;;;11.80;92.50;;;;;;4821016;29;21443;-80
2023/05/08 05:12:03;;;;;;;;;;;11.70;91.90;;;;;;4807778;29;19937;-80
2023/05/08 05:14:32;;;;;;;;;;;11.70;91.60;;;;;;4804184;29;19936;-80
2023/05/08 05:16:59;;;;;;;;;;;11.90;91.80;;;;;;4780037;29;19937;-80
2023/05/08 05:19:26;;;;;;;;;;;12.00;91.80;;;;;;4796705;29;19961;-80
2023/05/08 05:21:53;;;;;;;;;;;12.00;91.80;;;;;;4797575;29;20393;-80
2023/05/08 05:24:20;;;;;;;;;;;12.10;92.10;;;;;;4785714;29;19929;-80
2023/05/08 05:26:47;;;;;;;;;;;12.10;91.80;;;;;;4777247;29;19944;-80
2023/05/08 05:29:15;;;;;;;;;;;12.10;91.90;;;;;;4811257;29;20476;-80
2023/05/08 05:31:42;;;;;;;;;;;12.00;92.30;;;;;;4807607;29;20324;-80
2023/05/08 05:34:09;;;;;;;;;;;12.10;92.50;;;;;;4789969;29;20022;-80
2023/05/08 05:36:36;;;;;;;;;;;12.10;92.40;;;;;;4768875;29;20382;-78
2023/05/08 05:39:03;;;;;;;;;;;12.10;93.00;;;;;;4811171;29;19936;-78
2023/05/08 05:41:33;;;;;;;;;;;12.10;92.60;;;;;;4821856;29;20369;-80
2023/05/08 05:44:00;;;;;;;;;;;12.20;92.60;;;;;;4814710;29;19929;-80
2023/05/08 05:46:31;;;;;;;;;;;12.30;92.50;;;;;;4770725;29;20188;-80
2023/05/08 05:49:01;;;;;;;;;;;12.10;91.90;;;;;;4830706;29;20019;-78
2023/05/08 05:51:28;;;;;;;;;;;12.20;91.70;;;;;;4814240;29;19936;-77
2023/05/08 05:53:56;;;;;;;;;;;12.00;91.50;;;;;;4808018;29;19936;-79
2023/05/08 05:56:24;;;;;;;;;;;12.10;91.50;;;;;;4808827;29;19933;-79
2023/05/08 05:58:51;;;;;;;;;;;12.10;91.30;;;;;;4816090;29;20179;-78
2023/05/08 06:01:18;;;;;;;;;;;11.80;89.50;;;;;;4808818;29;19940;-79
2023/05/08 06:03:46;;;;;;;;;;;12.00;88.80;;;;;;4824061;29;20616;-78
2023/05/08 06:06:13;;;;;;;;;;;11.90;87.10;;;;;;4780446;29;19943;-78
2023/05/08 06:08:40;;;;;;;;;;;12.10;87.40;;;;;;4787802;29;20688;-78
2023/05/08 06:11:07;;;;;;;;;;;12.20;86.00;;;;;;4812702;29;20105;-78
2023/05/08 06:13:34;;;;;;;;;;;12.30;85.20;;;;;;4805435;29;19937;-79
2023/05/08 06:16:02;;;;;;;;;;;12.20;84.20;;;;;;4812419;29;19936;-79
2023/05/08 06:18:29;;;;;;;;;;;12.20;84.50;;;;;;4812873;29;20412;-79
2023/05/08 06:20:57;;;;;;;;;;;11.90;84.00;;;;;;4802832;29;20388;-79
2023/05/08 06:23:25;;;;;;;;;;;11.90;83.00;;;;;;4814382;29;19936;-79
2023/05/08 06:25:53;;;;;;;;;;;12.20;84.00;;;;;;4808544;29;19985;-80
2023/05/08 06:28:21;;;;;;;;;;;12.20;83.70;;;;;;4807331;29;20042;-77
2023/05/08 06:30:48;;;;;;;;;;;12.30;83.80;;;;;;4819079;29;20086;-79
2023/05/08 06:33:15;;;;;;;;;;;12.50;83.40;;;;;;4800688;29;20897;-79
2023/05/08 06:35:46;;;;;;;;;;;12.80;83.70;;;;;;4810890;29;19971;-79
2023/05/08 06:38:14;;;;;;;;;;;12.30;81.60;;;;;;4807250;29;19941;-79
2023/05/08 06:40:44;;;;;;;;;;;12.50;83.30;;;;;;4825769;29;19936;-79
2023/05/08 06:43:11;;;;;;;;;;;12.60;82.20;;;;;;4821561;29;19937;-78
2023/05/08 06:45:39;;;;;;;;;;;12.40;81.90;;;;;;4807481;29;19940;-76
2023/05/08 06:48:06;;;;;;;;;;;12.30;82.00;;;;;;4796607;29;19957;-77
2023/05/08 06:50:36;;;;;;;;;;;12.50;82.90;;;;;;4782072;29;20338;-77
2023/05/08 06:53:03;;;;;;;;;;;12.60;82.50;;;;;;4776086;29;19936;-78
2023/05/08 06:55:30;;;;;;;;;;;12.70;82.50;;;;;;4802929;29;19940;-77
2023/05/08 06:57:57;;;;;;;;;;;12.60;81.40;;;;;;4833007;29;19943;-77
2023/05/08 07:00:24;;;;;;;;;;;12.70;82.10;;;;;;4808131;29;20403;-77
2023/05/08 07:02:51;;;;;;;;;;;13.00;81.60;;;;;;4801216;29;20416;-79
2023/05/08 07:05:18;;;;;;;;;;;13.20;80.90;;;;;;4818605;29;19928;-79
2023/05/08 07:07:46;;;;;;;;;;;13.00;80.60;;;;;;4822375;29;19943;-78
2023/05/08 07:10:13;;;;;;;;;;;13.20;80.50;;;;;;4801714;29;19939;-76
2023/05/08 07:12:40;;;;;;;;;;;13.40;80.10;;;;;;4828710;29;20146;-76
2023/05/08 07:15:09;;;;;;;;;;;13.60;79.70;;;;;;4786556;29;19963;-77
2023/05/08 07:17:50;;;;;;;;;;;14.00;78.30;;;;;;4801181;29;20064;-77
2023/05/08 07:20:17;;;;;;;;;;;13.90;78.60;;;;;;4825948;29;20055;-78
2023/05/08 07:22:45;;;;;;;;;;;14.20;78.50;;;;;;4817446;29;19944;-79
2023/05/08 07:25:12;;;;;;;;;;;13.80;77.10;;;;;;4846404;29;19943;-77
2023/05/08 07:27:39;;;;;;;;;;;14.00;76.50;;;;;;4810920;29;19936;-78
2023/05/08 07:30:07;;;;;;;;;;;14.60;76.70;;;;;;4834406;29;19936;-78
2023/05/08 07:32:34;;;;;;;;;;;14.80;75.10;;;;;;4807318;29;19936;-77
2023/05/08 07:35:01;;;;;;;;;;;15.20;76.50;;;;;;4821409;29;20503;-77
2023/05/08 07:37:28;;;;;;;;;;;15.40;73.90;;;;;;4810244;29;19944;-77
2023/05/08 07:39:55;;;;;;;;;;;15.10;74.00;;;;;;4792379;29;19937;-78
2023/05/08 07:42:22;;;;;;;;;;;15.20;73.40;;;;;;4805749;29;19936;-79
2023/05/08 07:44:49;;;;;;;;;;;15.50;73.50;;;;;;4838121;29;19936;-78
2023/05/08 07:47:21;;;;;;;;;;;15.70;73.20;;;;;;4835172;29;19976;-78
2023/05/08 07:49:48;;;;;;;;;;;15.70;73.70;;;;;;4776958;29;19937;-77
2023/05/08 07:52:15;;;;;;;;;;;15.90;72.80;;;;;;4846072;29;19939;-78
2023/05/08 07:54:42;;;;;;;;;;;16.20;72.50;;;;;;4805039;29;20472;-78
2023/05/08 07:57:10;;;;;;;;;;;16.50;73.60;;;;;;4807994;29;19936;-78
2023/05/08 07:59:37;;;;;;;;;;;16.20;70.60;;;;;;4821043;29;20460;-78
2023/05/08 08:02:04;;;;;;;;;;;16.00;70.90;;;;;;4828230;29;19993;-78
2023/05/08 08:04:32;;;;;;;;;;;15.90;70.70;;;;;;4804780;29;19936;-76
2023/05/08 08:06:59;;;;;;;;;;;15.70;70.80;;;;;;4801725;29;20704;-80
2023/05/08 08:09:30;;;;;;;;;;;15.60;71.30;;;;;;4826311;29;20396;-80
2023/05/08 08:11:57;;;;;;;;;;;15.50;71.70;;;;;;4823773;29;22342;-80
2023/05/08 08:14:24;;;;;;;;;;;15.60;71.20;;;;;;4785549;29;19937;-80
2023/05/08 08:16:53;;;;;;;;;;;16.00;71.70;;;;;;4813337;29;20455;-77
2023/05/08 08:19:21;;;;;;;;;;;15.90;70.50;;;;;;4816757;29;19956;-78
2023/05/08 08:21:50;;;;;;;;;;;15.70;71.60;;;;;;4778679;29;20277;-78
2023/05/08 08:24:17;;;;;;;;;;;16.00;71.30;;;;;;4816605;29;20616;-76
2023/05/08 08:26:44;;;;;;;;;;;16.10;71.90;;;;;;4781315;29;20030;-78
2023/05/08 08:29:11;;;;;;;;;;;16.50;71.70;;;;;;4810697;29;22252;-78
2023/05/08 08:31:38;;;;;;;;;;;16.80;71.00;;;;;;4779153;29;20384;-78
2023/05/08 08:34:06;;;;;;;;;;;16.90;69.40;;;;;;4828969;29;19937;-78
2023/05/08 08:36:33;;;;;;;;;;;16.80;69.20;;;;;;4816411;29;20006;-77
2023/05/08 08:39:01;;;;;;;;;;;16.80;69.70;;;;;;4825740;29;20404;-77
2023/05/08 08:41:28;;;;;;;;;;;16.70;70.10;;;;;;4763863;29;19936;-79
2023/05/08 08:43:55;;;;;;;;;;;17.00;69.60;;;;;;4789727;29;19937;-80
2023/05/08 08:46:23;;;;;;;;;;;17.20;68.40;;;;;;4779394;29;19939;-79
2023/05/08 08:48:52;;;;;;;;;;;16.70;67.90;;;;;;4807507;29;20088;-78
2023/05/08 08:51:25;;;;;;;;;;;17.20;69.30;;;;;;4791046;29;19936;-78
2023/05/08 08:53:54;;;;;;;;;;;17.20;68.50;;;;;;4832696;29;19928;-77
2023/05/08 08:56:22;;;;;;;;;;;17.00;68.20;;;;;;4813685;29;19937;-77
2023/05/08 08:58:53;;;;;;;;;;;16.90;67.50;;;;;;4776124;29;19939;-78
2023/05/08 09:01:22;;;;;;;;;;;17.10;68.20;;;;;;4828545;29;20409;-77
2023/05/08 09:03:50;;;;;;;;;;;17.40;67.30;;;;;;4793793;29;19936;-77
2023/05/08 09:06:18;;;;;;;;;;;17.30;67.00;;;;;;4825476;29;19937;-78
2023/05/08 09:08:46;;;;;;;;;;;17.40;66.60;;;;;;4757193;29;19937;-77
2023/05/08 09:11:13;;;;;;;;;;;17.60;65.90;;;;;;4808911;29;22250;-78
2023/05/08 09:13:40;;;;;;;;;;;17.60;66.90;;;;;;4796264;29;19937;-78
2023/05/08 09:16:07;;;;;;;;;;;17.70;65.10;;;;;;4800354;29;20409;-78
2023/05/08 09:18:35;;;;;;;;;;;17.50;64.40;;;;;;4808855;29;19936;-78
2023/05/08 09:21:05;;;;;;;;;;;17.70;64.10;;;;;;4813340;29;20128;-75
2023/05/08 09:23:35;;;;;;;;;;;17.60;63.60;;;;;;4794365;29;22294;-77
2023/05/08 09:26:02;;;;;;;;;;;17.60;64.00;;;;;;4792524;29;19936;-78
2023/05/08 09:28:29;;;;;;;;;;;17.10;62.80;;;;;;4806052;29;19971;-78
2023/05/08 09:30:57;;;;;;;;;;;17.30;64.60;;;;;;4802775;29;20501;-77
2023/05/08 09:33:26;;;;;;;;;;;17.60;63.50;;;;;;4828328;29;19944;-77
2023/05/08 09:35:54;;;;;;;;;;;17.50;63.20;;;;;;4793976;29;20004;-78
2023/05/08 09:38:35;;;;;;;;;;;17.60;63.30;;;;;;4805905;29;19929;-77
2023/05/08 09:41:06;;;;;;;;;;;17.70;63.30;;;;;;4801701;29;19929;-78
2023/05/08 09:43:33;;;;;;;;;;;17.90;63.70;;;;;;4818814;29;20431;-78
2023/05/08 09:46:22;;;;;;;;;;;17.40;63.00;;;;;;4811482;29;22970;-77
2023/05/08 09:48:50;;;;;;;;;;;17.40;63.20;;;;;;4813546;29;20020;-78
2023/05/08 09:51:20;;;;;;;;;;;17.30;61.90;;;;;;4822688;29;19937;-78
2023/05/08 09:53:50;;;;;;;;;;;17.50;63.20;;;;;;4805358;29;20596;-78
2023/05/08 09:56:33;;;;;;;;;;;17.40;62.20;;;;;;4805644;29;21642;-80
2023/05/08 09:59:01;;;;;;;;;;;17.60;62.20;;;;;;4802330;29;19928;-78
2023/05/08 10:01:31;;;;;;;;;;;17.60;62.30;;;;;;4825580;29;19936;-78
2023/05/08 10:03:59;;;;;;;;;;;17.70;61.80;;;;;;4796593;29;19921;-78
2023/05/08 10:06:27;;;;;;;;;;;17.90;62.00;;;;;;4800383;29;19964;-78
2023/05/08 10:09:08;;;;;;;;;;;17.60;59.50;;;;;;4820019;29;19938;-78
2023/05/08 10:12:14;;;;;;;;;;;17.60;59.90;;;;;;4819099;29;20387;-78
2023/05/08 10:14:41;;;;;;;;;;;17.70;60.30;;;;;;4835385;29;20022;-78
2023/05/08 10:17:14;;;;;;;;;;;17.90;60.00;;;;;;4804140;29;19936;-78
2023/05/08 10:19:44;;;;;;;;;;;17.60;59.80;;;;;;4827319;29;20027;-79
2023/05/08 10:22:12;;;;;;;;;;;17.50;60.60;;;;;;4822068;29;19967;-78
2023/05/08 10:24:43;;;;;;;;;;;17.70;60.60;;;;;;4824609;29;21404;-78
2023/05/08 10:27:23;;;;;;;;;;;17.70;60.00;;;;;;4819164;29;19944;-77
2023/05/08 10:29:57;;;;;;;;;;;18.00;60.30;;;;;;4827154;29;19929;-80
2023/05/08 10:32:24;;;;;;;;;;;18.00;59.40;;;;;;4819110;29;19937;-78
2023/05/08 10:34:53;;;;;;;;;;;18.10;58.80;;;;;;4809607;29;19939;-78
2023/05/08 10:37:20;;;;;;;;;;;18.30;59.80;;;;;;4824855;29;20400;-79
2023/05/08 10:39:48;;;;;;;;;;;18.10;58.50;;;;;;4799249;29;19936;-76
2023/05/08 10:42:15;;;;;;;;;;;18.10;59.90;;;;;;4799891;29;20047;-78
2023/05/08 10:45:05;;;;;;;;;;;18.10;60.50;;;;;;4809728;29;20031;-78
2023/05/08 10:47:41;;;;;;;;;;;18.00;59.40;;;;;;4818418;29;19975;-78
2023/05/08 10:50:29;;;;;;;;;;;18.00;60.20;;;;;;4822871;29;19944;-78
2023/05/08 10:53:29;;;;;;;;;;;18.40;59.80;;;;;;4823492;29;19992;-78
2023/05/08 10:55:56;;;;;;;;;;;18.50;58.90;;;;;;4753458;29;19941;-78
2023/05/08 10:58:23;;;;;;;;;;;18.40;57.90;;;;;;4762133;29;20299;-80
2023/05/08 11:00:56;;;;;;;;;;;18.30;58.10;;;;;;4796319;29;19936;-80
2023/05/08 11:03:24;;;;;;;;;;;18.30;58.00;;;;;;4819068;29;19928;-81
2023/05/08 11:05:59;;;;;;;;;;;18.20;58.20;;;;;;4836536;29;19936;-78
2023/05/08 11:08:27;;;;;;;;;;;18.40;58.50;;;;;;4806984;29;19936;-78
2023/05/08 11:11:01;;;;;;;;;;;18.40;57.40;;;;;;4811891;29;19944;-78
2023/05/08 11:13:32;;;;;;;;;;;18.60;58.40;;;;;;4805655;29;22334;-78
2023/05/08 11:15:59;;;;;;;;;;;18.60;56.90;;;;;;4808099;29;19936;-77
2023/05/08 11:18:27;;;;;;;;;;;18.60;58.00;;;;;;4805562;29;19937;-78
2023/05/08 11:21:35;;;;;;;;;;;18.70;58.20;;;;;;4811351;29;19936;-78
2023/05/08 11:24:08;;;;;;;;;;;18.70;59.20;;;;;;4813350;29;19947;-78
2023/05/08 11:26:39;;;;;;;;;;;18.70;57.60;;;;;;4825760;29;19939;-78
2023/05/08 11:29:18;;;;;;;;;;;18.60;57.20;;;;;;4805735;29;19936;-76
2023/05/08 11:31:48;;;;;;;;;;;18.70;56.00;;;;;;4808324;29;20514;-78
2023/05/08 11:34:34;;;;;;;;;;;18.80;55.70;;;;;;4836077;29;19943;-78
2023/05/08 11:37:01;;;;;;;;;;;18.90;56.30;;;;;;4817728;29;19943;-78
2023/05/08 11:39:31;;;;;;;;;;;18.90;57.20;;;;;;4807958;29;19942;-78
2023/05/08 11:42:17;;;;;;;;;;;18.80;57.60;;;;;;4805289;29;19928;-78
2023/05/08 11:44:44;;;;;;;;;;;18.60;56.30;;;;;;4790216;29;19963;-77
2023/05/08 11:47:17;;;;;;;;;;;18.70;57.50;;;;;;4786302;29;19943;-77
2023/05/08 11:49:44;;;;;;;;;;;18.60;57.20;;;;;;4803344;29;20021;-78
2023/05/08 11:52:11;;;;;;;;;;;18.90;57.70;;;;;;4801919;29;22329;-78
2023/05/08 11:54:38;;;;;;;;;;;19.00;57.00;;;;;;4801190;29;20439;-78
2023/05/08 11:57:05;;;;;;;;;;;18.90;57.60;;;;;;4808823;29;19944;-78
2023/05/08 11:59:36;;;;;;;;;;;19.00;58.00;;;;;;4804393;29;19936;-78
2023/05/08 12:02:03;;;;;;;;;;;18.90;56.90;;;;;;4790090;29;20697;-78
2023/05/08 12:04:43;;;;;;;;;;;18.80;57.50;;;;;;4800529;29;20343;-77
2023/05/08 12:07:10;;;;;;;;;;;18.90;58.10;;;;;;4793407;29;20038;-76
2023/05/08 12:09:37;;;;;;;;;;;18.70;58.00;;;;;;4781915;29;19937;-77
2023/05/08 12:12:05;;;;;;;;;;;18.80;58.90;;;;;;4794213;29;19936;-78
2023/05/08 12:14:33;;;;;;;;;;;19.10;59.20;;;;;;4789953;29;20537;-78
2023/05/08 12:17:03;;;;;;;;;;;18.90;58.60;;;;;;4832607;29;19936;-78
2023/05/08 12:19:31;;;;;;;;;;;19.00;59.50;;;;;;4819650;29;19936;-78
2023/05/08 12:21:59;;;;;;;;;;;19.20;59.20;;;;;;4822152;29;20036;-76
2023/05/08 12:24:26;;;;;;;;;;;18.90;58.30;;;;;;4813160;29;19936;-77
2023/05/08 12:26:54;;;;;;;;;;;18.80;59.00;;;;;;4836044;29;19933;-80
2023/05/08 12:29:22;;;;;;;;;;;18.70;58.90;;;;;;4816781;29;19940;-78
2023/05/08 12:31:50;;;;;;;;;;;18.60;58.70;;;;;;4830048;29;20015;-78
2023/05/08 12:34:16;;;;;;;;;;;18.80;58.90;;;;;;4791682;29;19944;-77
2023/05/08 12:36:44;;;;;;;;;;;19.00;58.10;;;;;;4823770;29;19943;-79
2023/05/08 12:39:13;;;;;;;;;;;19.10;58.30;;;;;;4822664;29;19936;-80
2023/05/08 12:41:41;;;;;;;;;;;19.10;57.90;;;;;;4809648;29;19984;-78
2023/05/08 12:44:29;;;;;;;;;;;18.80;58.60;;;;;;4797846;29;19936;-78
2023/05/08 12:46:56;;;;;;;;;;;19.00;59.00;;;;;;4819466;29;20457;-79
2023/05/08 12:49:31;;;;;;;;;;;19.20;58.50;;;;;;4785535;29;19928;-76
2023/05/08 12:51:59;;;;;;;;;;;19.20;57.60;;;;;;4816896;29;19937;-78
2023/05/08 12:54:30;;;;;;;;;;;19.30;58.50;;;;;;4799730;29;19936;-77
2023/05/08 12:56:58;;;;;;;;;;;19.30;57.90;;;;;;4832976;29;22202;-77
2023/05/08 12:59:30;;;;;;;;;;;19.10;58.30;;;;;;4795383;29;19937;-77
2023/05/08 13:01:57;;;;;;;;;;;19.40;58.00;;;;;;4798209;29;19943;-78
2023/05/08 13:04:24;;;;;;;;;;;19.50;58.00;;;;;;4774740;29;20035;-78
2023/05/08 13:06:55;;;;;;;;;;;19.60;57.50;;;;;;4796932;29;19944;-78
2023/05/08 13:09:22;;;;;;;;;;;19.70;56.50;;;;;;4793668;29;19937;-77
2023/05/08 13:11:49;;;;;;;;;;;19.70;56.10;;;;;;4799177;29;19936;-77
2023/05/08 13:14:16;;;;;;;;;;;19.80;56.50;;;;;;4825721;29;19929;-78
2023/05/08 13:16:44;;;;;;;;;;;19.70;56.30;;;;;;4841452;29;19998;-77
2023/05/08 13:19:13;;;;;;;;;;;19.60;55.80;;;;;;4807618;29;22273;-76
2023/05/08 13:21:40;;;;;;;;;;;19.70;56.20;;;;;;4821774;29;19936;-78
2023/05/08 13:24:07;;;;;;;;;;;19.50;55.30;;;;;;4825630;29;19936;-78
2023/05/08 13:26:34;;;;;;;;;;;19.40;56.00;;;;;;4835718;29;19943;-78
2023/05/08 13:29:01;;;;;;;;;;;19.60;55.90;;;;;;4818525;29;19940;-77
2023/05/08 13:31:28;;;;;;;;;;;19.50;56.00;;;;;;4808557;29;19936;-78
2023/05/08 13:33:55;;;;;;;;;;;19.70;55.90;;;;;;4840490;29;20391;-78
2023/05/08 13:36:22;;;;;;;;;;;19.80;55.70;;;;;;4818718;29;19932;-78
2023/05/08 13:38:50;;;;;;;;;;;19.90;55.60;;;;;;4817532;29;21907;-78
2023/05/08 13:41:17;;;;;;;;;;;19.70;55.50;;;;;;4792049;29;20564;-78
2023/05/08 13:43:46;;;;;;;;;;;19.80;56.40;;;;;;4822294;29;19936;-78
2023/05/08 13:46:13;;;;;;;;;;;19.80;55.60;;;;;;4822256;29;20007;-78
2023/05/08 13:48:41;;;;;;;;;;;20.00;56.00;;;;;;4829149;29;19935;-78
2023/05/08 13:51:07;;;;;;;;;;;20.00;56.00;;;;;;4826126;29;19936;-77
2023/05/08 13:53:34;;;;;;;;;;;20.20;54.80;;;;;;4840717;29;20607;-78
2023/05/08 13:56:01;;;;;;;;;;;20.00;54.40;;;;;;4810039;29;20119;-78
2023/05/08 13:58:28;;;;;;;;;;;19.90;55.10;;;;;;4819442;29;19936;-78
2023/05/08 14:00:56;;;;;;;;;;;20.00;55.50;;;;;;4816411;29;19936;-78
2023/05/08 14:03:23;;;;;;;;;;;20.10;55.90;;;;;;4788518;29;20031;-78
2023/05/08 14:05:50;;;;;;;;;;;20.20;56.50;;;;;;4812472;29;19936;-78
2023/05/08 14:08:17;;;;;;;;;;;20.10;54.90;;;;;;4837175;29;20337;-80
2023/05/08 14:10:44;;;;;;;;;;;20.20;56.00;;;;;;4792481;29;22335;-77
2023/05/08 14:13:12;;;;;;;;;;;20.20;55.30;;;;;;4834467;29;20388;-77
2023/05/08 14:15:40;;;;;;;;;;;20.00;55.00;;;;;;4837994;29;20088;-78
2023/05/08 14:18:08;;;;;;;;;;;19.90;54.80;;;;;;4806905;29;20369;-78
2023/05/08 14:20:35;;;;;;;;;;;19.90;55.10;;;;;;4813120;29;20024;-77
2023/05/08 14:23:02;;;;;;;;;;;19.80;54.60;;;;;;4798978;29;19936;-78
2023/05/08 14:25:29;;;;;;;;;;;19.90;55.10;;;;;;4818648;29;19936;-78
2023/05/08 14:27:59;;;;;;;;;;;19.90;55.00;;;;;;4833207;29;22658;-79
2023/05/08 14:30:26;;;;;;;;;;;19.90;56.20;;;;;;4832170;29;20119;-77